sensor_id;sensor_type;location;lat;lon;timestamp;temperature;humidity
24614;DHT22;12760;46.296;25.290;2023-04-12T00:01:56;10.30;99.90
24614;DHT22;12760;46.296;25.290;2023-04-12T00:04:21;10.30;99.90
24614;DHT22;12760;46.296;25.290;2023-04-12T00:06:51;10.20;99.90
24614;DHT22;12760;46.296;25.290;2023-04-12T00:09:19;10.30;99.90
24614;DHT22;12760;46.296;25.290;2023-04-12T00:11:45;10.40;99.90
24614;DHT22;12760;46.296;25.290;2023-04-12T00:14:11;10.40;99.90
24614;DHT22;12760;46.296;25.290;2023-04-12T00:16:37;10.50;99.90
24614;DHT22;12760;46.296;25.290;2023-04-12T00:19:04;10.40;99.90
24614;DHT22;12760;46.296;25.290;2023-04-12T00:21:31;10.30;99.90
24614;DHT22;12760;46.296;25.290;2023-04-12T00:23:57;10.30;99.90
24614;DHT22;12760;46.296;25.290;2023-04-12T00:26:22;10.30;99.90
24614;DHT22;12760;46.296;25.290;2023-04-12T00:28:50;10.30;99.90
24614;DHT22;12760;46.296;25.290;2023-04-12T00:31:15;10.20;99.90
24614;DHT22;12760;46.296;25.290;2023-04-12T00:33:41;10.20;99.90
24614;DHT22;12760;46.296;25.290;2023-04-12T00:36:07;10.20;99.90
24614;DHT22;12760;46.296;25.290;2023-04-12T00:38:33;10.30;99.90
24614;DHT22;12760;46.296;25.290;2023-04-12T00:40:59;10.40;99.90
24614;DHT22;12760;46.296;25.290;2023-04-12T00:43:25;10.50;99.90
24614;DHT22;12760;46.296;25.290;2023-04-12T00:45:53;10.40;99.90
24614;DHT22;12760;46.296;25.290;2023-04-12T00:48:24;10.40;99.90
24614;DHT22;12760;46.296;25.290;2023-04-12T00:50:51;10.50;99.90
24614;DHT22;12760;46.296;25.290;2023-04-12T00:53:20;10.40;99.90
24614;DHT22;12760;46.296;25.290;2023-04-12T00:55:47;10.50;99.90
24614;DHT22;12760;46.296;25.290;2023-04-12T00:58:14;10.50;99.90
24614;DHT22;12760;46.296;25.290;2023-04-12T01:00:41;10.50;99.90
24614;DHT22;12760;46.296;25.290;2023-04-12T01:03:09;10.50;99.90
24614;DHT22;12760;46.296;25.290;2023-04-12T01:05:51;10.50;99.90
24614;DHT22;12760;46.296;25.290;2023-04-12T01:08:31;10.50;99.90
24614;DHT22;12760;46.296;25.290;2023-04-12T01:11:17;10.50;99.90
24614;DHT22;12760;46.296;25.290;2023-04-12T01:13:54;10.50;99.90
24614;DHT22;12760;46.296;25.290;2023-04-12T01:16:46;10.40;99.90
24614;DHT22;12760;46.296;25.290;2023-04-12T01:19:53;10.40;99.90
24614;DHT22;12760;46.296;25.290;2023-04-12T01:25:51;10.30;99.90
24614;DHT22;12760;46.296;25.290;2023-04-12T01:28:28;10.30;99.90
24614;DHT22;12760;46.296;25.290;2023-04-12T01:30:56;10.30;99.90
24614;DHT22;12760;46.296;25.290;2023-04-12T01:33:24;10.20;99.90
24614;DHT22;12760;46.296;25.290;2023-04-12T01:35:58;10.20;99.90
24614;DHT22;12760;46.296;25.290;2023-04-12T01:38:24;10.30;99.90
24614;DHT22;12760;46.296;25.290;2023-04-12T01:40:49;10.20;99.90
24614;DHT22;12760;46.296;25.290;2023-04-12T01:43:15;10.20;99.90
24614;DHT22;12760;46.296;25.290;2023-04-12T01:45:41;10.20;99.90
24614;DHT22;12760;46.296;25.290;2023-04-12T01:48:08;10.10;99.90
24614;DHT22;12760;46.296;25.290;2023-04-12T01:50:43;10.10;99.90
24614;DHT22;12760;46.296;25.290;2023-04-12T01:55:59;10.30;99.90
24614;DHT22;12760;46.296;25.290;2023-04-12T01:58:28;10.30;99.90
24614;DHT22;12760;46.296;25.290;2023-04-12T02:00:55;10.40;99.90
24614;DHT22;12760;46.296;25.290;2023-04-12T02:03:22;10.40;99.90
24614;DHT22;12760;46.296;25.290;2023-04-12T02:05:50;10.40;99.90
24614;DHT22;12760;46.296;25.290;2023-04-12T02:08:16;10.40;99.90
24614;DHT22;12760;46.296;25.290;2023-04-12T02:10:42;10.40;99.90
24614;DHT22;12760;46.296;25.290;2023-04-12T02:13:08;10.40;99.90
24614;DHT22;12760;46.296;25.290;2023-04-12T02:15:33;10.40;99.90
24614;DHT22;12760;46.296;25.290;2023-04-12T02:18:01;10.30;99.90
24614;DHT22;12760;46.296;25.290;2023-04-12T02:20:28;10.20;99.90
24614;DHT22;12760;46.296;25.290;2023-04-12T02:22:54;10.20;99.90
24614;DHT22;12760;46.296;25.290;2023-04-12T02:25:20;10.10;99.90
24614;DHT22;12760;46.296;25.290;2023-04-12T02:27:45;10.00;99.90
24614;DHT22;12760;46.296;25.290;2023-04-12T02:30:14;10.00;99.90
24614;DHT22;12760;46.296;25.290;2023-04-12T02:32:40;10.10;99.90
24614;DHT22;12760;46.296;25.290;2023-04-12T02:35:14;10.00;99.90
24614;DHT22;12760;46.296;25.290;2023-04-12T02:37:43;10.00;99.90
24614;DHT22;12760;46.296;25.290;2023-04-12T02:40:09;10.10;99.90
24614;DHT22;12760;46.296;25.290;2023-04-12T02:42:36;10.10;99.90
24614;DHT22;12760;46.296;25.290;2023-04-12T02:45:02;10.20;99.90
24614;DHT22;12760;46.296;25.290;2023-04-12T02:47:28;10.20;99.90
24614;DHT22;12760;46.296;25.290;2023-04-12T02:49:54;10.20;99.90
24614;DHT22;12760;46.296;25.290;2023-04-12T02:52:20;10.30;99.90
24614;DHT22;12760;46.296;25.290;2023-04-12T02:54:48;10.30;99.90
24614;DHT22;12760;46.296;25.290;2023-04-12T02:57:14;10.20;99.90
24614;DHT22;12760;46.296;25.290;2023-04-12T02:59:41;10.00;99.90
24614;DHT22;12760;46.296;25.290;2023-04-12T03:02:07;10.00;99.90
24614;DHT22;12760;46.296;25.290;2023-04-12T03:04:33;10.00;99.90
24614;DHT22;12760;46.296;25.290;2023-04-12T03:07:02;9.90;99.90
24614;DHT22;12760;46.296;25.290;2023-04-12T03:09:28;9.90;99.90
24614;DHT22;12760;46.296;25.290;2023-04-12T03:11:53;9.90;99.90
24614;DHT22;12760;46.296;25.290;2023-04-12T03:14:19;10.00;99.90
24614;DHT22;12760;46.296;25.290;2023-04-12T03:16:45;10.00;99.90
24614;DHT22;12760;46.296;25.290;2023-04-12T03:19:11;10.00;99.90
24614;DHT22;12760;46.296;25.290;2023-04-12T03:21:37;10.00;99.90
24614;DHT22;12760;46.296;25.290;2023-04-12T03:24:03;10.10;99.90
24614;DHT22;12760;46.296;25.290;2023-04-12T03:26:29;10.10;99.90
24614;DHT22;12760;46.296;25.290;2023-04-12T03:29:02;10.20;99.90
24614;DHT22;12760;46.296;25.290;2023-04-12T03:31:33;10.20;99.90
24614;DHT22;12760;46.296;25.290;2023-04-12T03:33:59;10.20;99.90
24614;DHT22;12760;46.296;25.290;2023-04-12T03:36:25;10.20;99.90
24614;DHT22;12760;46.296;25.290;2023-04-12T03:38:54;10.10;99.90
24614;DHT22;12760;46.296;25.290;2023-04-12T03:41:21;10.00;99.90
24614;DHT22;12760;46.296;25.290;2023-04-12T03:43:48;10.00;99.90
24614;DHT22;12760;46.296;25.290;2023-04-12T03:46:14;10.00;99.90
24614;DHT22;12760;46.296;25.290;2023-04-12T03:48:40;10.10;99.90
24614;DHT22;12760;46.296;25.290;2023-04-12T03:51:07;10.10;99.90
24614;DHT22;12760;46.296;25.290;2023-04-12T03:53:36;10.00;99.90
24614;DHT22;12760;46.296;25.290;2023-04-12T03:56:02;10.10;99.90
24614;DHT22;12760;46.296;25.290;2023-04-12T03:58:28;10.00;99.90
24614;DHT22;12760;46.296;25.290;2023-04-12T04:00:54;10.00;99.90
24614;DHT22;12760;46.296;25.290;2023-04-12T04:03:20;10.00;99.90
24614;DHT22;12760;46.296;25.290;2023-04-12T04:05:54;10.00;99.90
24614;DHT22;12760;46.296;25.290;2023-04-12T04:08:20;10.00;99.90
24614;DHT22;12760;46.296;25.290;2023-04-12T04:10:46;10.00;99.90
24614;DHT22;12760;46.296;25.290;2023-04-12T04:13:12;10.00;99.90
24614;DHT22;12760;46.296;25.290;2023-04-12T04:15:37;10.10;99.90
24614;DHT22;12760;46.296;25.290;2023-04-12T04:18:03;10.10;99.90
24614;DHT22;12760;46.296;25.290;2023-04-12T04:20:29;10.10;99.90
24614;DHT22;12760;46.296;25.290;2023-04-12T04:22:56;10.10;99.90
24614;DHT22;12760;46.296;25.290;2023-04-12T04:25:22;10.00;99.90
24614;DHT22;12760;46.296;25.290;2023-04-12T04:27:54;10.00;99.90
24614;DHT22;12760;46.296;25.290;2023-04-12T04:30:20;10.10;99.90
24614;DHT22;12760;46.296;25.290;2023-04-12T04:32:48;10.00;99.90
24614;DHT22;12760;46.296;25.290;2023-04-12T04:35:14;10.00;99.90
24614;DHT22;12760;46.296;25.290;2023-04-12T04:37:41;10.00;99.90
24614;DHT22;12760;46.296;25.290;2023-04-12T04:40:08;10.10;99.90
24614;DHT22;12760;46.296;25.290;2023-04-12T04:42:34;10.10;99.90
24614;DHT22;12760;46.296;25.290;2023-04-12T04:44:59;10.20;99.90
24614;DHT22;12760;46.296;25.290;2023-04-12T04:47:29;10.20;99.90
24614;DHT22;12760;46.296;25.290;2023-04-12T04:49:58;10.20;99.90
24614;DHT22;12760;46.296;25.290;2023-04-12T04:52:24;10.20;99.90
24614;DHT22;12760;46.296;25.290;2023-04-12T04:54:50;10.20;99.90
24614;DHT22;12760;46.296;25.290;2023-04-12T04:57:16;10.20;99.90
24614;DHT22;12760;46.296;25.290;2023-04-12T04:59:42;10.20;99.90
24614;DHT22;12760;46.296;25.290;2023-04-12T05:02:08;10.20;99.90
24614;DHT22;12760;46.296;25.290;2023-04-12T05:04:34;10.20;99.90
24614;DHT22;12760;46.296;25.290;2023-04-12T05:07:00;10.20;99.90
24614;DHT22;12760;46.296;25.290;2023-04-12T05:09:26;10.20;99.90
24614;DHT22;12760;46.296;25.290;2023-04-12T05:11:51;10.20;99.90
24614;DHT22;12760;46.296;25.290;2023-04-12T05:14:17;10.10;99.90
24614;DHT22;12760;46.296;25.290;2023-04-12T05:16:43;10.20;99.90
24614;DHT22;12760;46.296;25.290;2023-04-12T05:19:08;10.20;99.90
24614;DHT22;12760;46.296;25.290;2023-04-12T05:21:34;10.20;99.90
24614;DHT22;12760;46.296;25.290;2023-04-12T05:24:00;10.10;99.90
24614;DHT22;12760;46.296;25.290;2023-04-12T05:26:26;10.10;99.90
24614;DHT22;12760;46.296;25.290;2023-04-12T05:28:52;10.10;99.90
24614;DHT22;12760;46.296;25.290;2023-04-12T05:31:17;10.20;99.90
24614;DHT22;12760;46.296;25.290;2023-04-12T05:33:43;10.20;99.90
24614;DHT22;12760;46.296;25.290;2023-04-12T05:36:12;10.20;99.90
24614;DHT22;12760;46.296;25.290;2023-04-12T05:38:38;10.30;99.90
24614;DHT22;12760;46.296;25.290;2023-04-12T05:41:04;10.30;99.90
24614;DHT22;12760;46.296;25.290;2023-04-12T05:43:30;10.30;99.90
24614;DHT22;12760;46.296;25.290;2023-04-12T05:45:57;10.40;99.90
24614;DHT22;12760;46.296;25.290;2023-04-12T05:48:23;10.30;99.90
24614;DHT22;12760;46.296;25.290;2023-04-12T05:50:52;10.40;99.90
24614;DHT22;12760;46.296;25.290;2023-04-12T05:53:19;10.40;99.90
24614;DHT22;12760;46.296;25.290;2023-04-12T05:55:45;10.40;99.90
24614;DHT22;12760;46.296;25.290;2023-04-12T05:58:11;10.50;99.90
24614;DHT22;12760;46.296;25.290;2023-04-12T06:00:38;10.40;99.90
24614;DHT22;12760;46.296;25.290;2023-04-12T06:03:09;10.40;99.90
24614;DHT22;12760;46.296;25.290;2023-04-12T06:05:36;10.40;99.90
24614;DHT22;12760;46.296;25.290;2023-04-12T06:08:02;10.40;99.90
24614;DHT22;12760;46.296;25.290;2023-04-12T06:10:30;10.30;99.90
24614;DHT22;12760;46.296;25.290;2023-04-12T06:12:56;10.30;99.90
24614;DHT22;12760;46.296;25.290;2023-04-12T06:15:21;10.20;99.90
24614;DHT22;12760;46.296;25.290;2023-04-12T06:17:47;10.20;99.90
24614;DHT22;12760;46.296;25.290;2023-04-12T06:20:15;10.20;99.90
24614;DHT22;12760;46.296;25.290;2023-04-12T06:22:41;10.30;99.90
24614;DHT22;12760;46.296;25.290;2023-04-12T06:25:07;10.30;99.90
24614;DHT22;12760;46.296;25.290;2023-04-12T06:27:33;10.30;99.90
24614;DHT22;12760;46.296;25.290;2023-04-12T06:29:58;10.40;99.90
24614;DHT22;12760;46.296;25.290;2023-04-12T06:32:24;10.40;99.90
24614;DHT22;12760;46.296;25.290;2023-04-12T06:34:50;10.50;99.90
24614;DHT22;12760;46.296;25.290;2023-04-12T06:37:16;10.50;99.90
24614;DHT22;12760;46.296;25.290;2023-04-12T06:39:42;10.50;99.90
24614;DHT22;12760;46.296;25.290;2023-04-12T06:42:08;10.60;99.90
24614;DHT22;12760;46.296;25.290;2023-04-12T06:44:33;10.60;99.90
24614;DHT22;12760;46.296;25.290;2023-04-12T06:46:59;10.40;99.90
24614;DHT22;12760;46.296;25.290;2023-04-12T06:49:25;10.40;99.90
24614;DHT22;12760;46.296;25.290;2023-04-12T06:51:50;10.40;99.90
24614;DHT22;12760;46.296;25.290;2023-04-12T06:54:16;10.40;99.90
24614;DHT22;12760;46.296;25.290;2023-04-12T06:56:42;10.40;99.90
24614;DHT22;12760;46.296;25.290;2023-04-12T06:59:08;10.60;99.90
24614;DHT22;12760;46.296;25.290;2023-04-12T07:01:34;10.50;99.90
24614;DHT22;12760;46.296;25.290;2023-04-12T07:04:00;10.50;99.90
24614;DHT22;12760;46.296;25.290;2023-04-12T07:06:26;10.60;99.90
24614;DHT22;12760;46.296;25.290;2023-04-12T07:08:53;10.60;99.90
24614;DHT22;12760;46.296;25.290;2023-04-12T07:11:19;10.70;99.90
24614;DHT22;12760;46.296;25.290;2023-04-12T07:13:47;10.70;99.90
24614;DHT22;12760;46.296;25.290;2023-04-12T07:16:13;10.70;99.90
24614;DHT22;12760;46.296;25.290;2023-04-12T07:18:38;10.70;99.90
24614;DHT22;12760;46.296;25.290;2023-04-12T07:21:04;10.70;99.90
24614;DHT22;12760;46.296;25.290;2023-04-12T07:23:30;10.80;99.90
24614;DHT22;12760;46.296;25.290;2023-04-12T07:26:00;10.70;99.90
24614;DHT22;12760;46.296;25.290;2023-04-12T07:28:26;10.80;99.90
24614;DHT22;12760;46.296;25.290;2023-04-12T07:30:52;10.80;99.90
24614;DHT22;12760;46.296;25.290;2023-04-12T07:33:18;10.80;99.90
24614;DHT22;12760;46.296;25.290;2023-04-12T07:35:43;10.70;99.90
24614;DHT22;12760;46.296;25.290;2023-04-12T07:38:09;10.60;99.90
24614;DHT22;12760;46.296;25.290;2023-04-12T07:40:35;10.70;99.90
24614;DHT22;12760;46.296;25.290;2023-04-12T07:43:00;10.60;99.90
24614;DHT22;12760;46.296;25.290;2023-04-12T07:45:26;10.70;99.90
24614;DHT22;12760;46.296;25.290;2023-04-12T07:47:52;10.70;99.90
24614;DHT22;12760;46.296;25.290;2023-04-12T07:50:17;10.80;99.90
24614;DHT22;12760;46.296;25.290;2023-04-12T07:52:43;10.80;99.90
24614;DHT22;12760;46.296;25.290;2023-04-12T07:55:09;10.90;99.90
24614;DHT22;12760;46.296;25.290;2023-04-12T07:57:35;10.90;99.90
24614;DHT22;12760;46.296;25.290;2023-04-12T08:00:01;11.00;99.90
24614;DHT22;12760;46.296;25.290;2023-04-12T08:02:27;11.00;99.90
24614;DHT22;12760;46.296;25.290;2023-04-12T08:04:53;11.00;99.90
24614;DHT22;12760;46.296;25.290;2023-04-12T08:07:19;11.00;99.90
24614;DHT22;12760;46.296;25.290;2023-04-12T08:09:47;11.10;99.90
24614;DHT22;12760;46.296;25.290;2023-04-12T08:12:13;11.10;99.90
24614;DHT22;12760;46.296;25.290;2023-04-12T08:14:39;11.20;99.90
24614;DHT22;12760;46.296;25.290;2023-04-12T08:17:05;11.20;99.90
24614;DHT22;12760;46.296;25.290;2023-04-12T08:19:30;11.20;99.90
24614;DHT22;12760;46.296;25.290;2023-04-12T08:21:56;11.20;99.90
24614;DHT22;12760;46.296;25.290;2023-04-12T08:24:22;11.20;99.90
24614;DHT22;12760;46.296;25.290;2023-04-12T08:26:49;11.20;99.90
24614;DHT22;12760;46.296;25.290;2023-04-12T08:29:16;11.10;99.90
24614;DHT22;12760;46.296;25.290;2023-04-12T08:31:41;11.10;99.90
24614;DHT22;12760;46.296;25.290;2023-04-12T08:34:07;11.10;99.90
24614;DHT22;12760;46.296;25.290;2023-04-12T08:36:33;11.10;99.90
24614;DHT22;12760;46.296;25.290;2023-04-12T08:38:59;11.20;99.90
24614;DHT22;12760;46.296;25.290;2023-04-12T08:41:25;11.10;99.90
24614;DHT22;12760;46.296;25.290;2023-04-12T08:43:52;11.00;99.90
24614;DHT22;12760;46.296;25.290;2023-04-12T08:46:22;11.00;99.90
24614;DHT22;12760;46.296;25.290;2023-04-12T08:48:49;11.00;99.90
24614;DHT22;12760;46.296;25.290;2023-04-12T08:51:19;11.00;99.90
24614;DHT22;12760;46.296;25.290;2023-04-12T08:53:46;11.00;99.90
24614;DHT22;12760;46.296;25.290;2023-04-12T08:56:13;11.00;99.90
24614;DHT22;12760;46.296;25.290;2023-04-12T08:58:40;11.10;99.90
24614;DHT22;12760;46.296;25.290;2023-04-12T09:01:10;11.10;99.90
24614;DHT22;12760;46.296;25.290;2023-04-12T09:03:38;11.00;99.90
24614;DHT22;12760;46.296;25.290;2023-04-12T09:06:05;10.90;99.90
24614;DHT22;12760;46.296;25.290;2023-04-12T09:08:31;10.90;99.90
24614;DHT22;12760;46.296;25.290;2023-04-12T09:10:56;11.00;99.90
24614;DHT22;12760;46.296;25.290;2023-04-12T09:13:34;11.00;99.90
24614;DHT22;12760;46.296;25.290;2023-04-12T09:16:03;11.00;99.90
24614;DHT22;12760;46.296;25.290;2023-04-12T09:18:28;11.00;99.90
24614;DHT22;12760;46.296;25.290;2023-04-12T09:21:08;11.10;99.90
24614;DHT22;12760;46.296;25.290;2023-04-12T09:23:34;11.00;99.90
24614;DHT22;12760;46.296;25.290;2023-04-12T09:26:03;11.10;99.90
24614;DHT22;12760;46.296;25.290;2023-04-12T09:28:29;11.10;99.90
24614;DHT22;12760;46.296;25.290;2023-04-12T09:30:57;11.20;99.90
24614;DHT22;12760;46.296;25.290;2023-04-12T09:33:37;11.20;99.90
24614;DHT22;12760;46.296;25.290;2023-04-12T09:36:04;11.20;99.90
24614;DHT22;12760;46.296;25.290;2023-04-12T09:38:32;11.20;99.90
24614;DHT22;12760;46.296;25.290;2023-04-12T09:41:16;11.20;99.90
24614;DHT22;12760;46.296;25.290;2023-04-12T09:43:42;11.30;99.90
24614;DHT22;12760;46.296;25.290;2023-04-12T09:46:14;11.30;99.90
24614;DHT22;12760;46.296;25.290;2023-04-12T09:48:47;11.40;99.90
24614;DHT22;12760;46.296;25.290;2023-04-12T09:53:54;11.40;99.90
24614;DHT22;12760;46.296;25.290;2023-04-12T09:56:27;11.50;99.90
24614;DHT22;12760;46.296;25.290;2023-04-12T09:58:54;11.50;99.90
24614;DHT22;12760;46.296;25.290;2023-04-12T10:01:22;11.40;99.90
24614;DHT22;12760;46.296;25.290;2023-04-12T10:03:48;11.40;99.90
24614;DHT22;12760;46.296;25.290;2023-04-12T10:06:14;11.40;99.90
24614;DHT22;12760;46.296;25.290;2023-04-12T10:08:41;11.60;99.90
24614;DHT22;12760;46.296;25.290;2023-04-12T10:11:07;11.60;99.90
24614;DHT22;12760;46.296;25.290;2023-04-12T10:13:35;11.60;99.90
24614;DHT22;12760;46.296;25.290;2023-04-12T10:16:03;11.60;99.90
24614;DHT22;12760;46.296;25.290;2023-04-12T10:18:30;11.70;99.90
24614;DHT22;12760;46.296;25.290;2023-04-12T10:21:00;11.70;99.90
24614;DHT22;12760;46.296;25.290;2023-04-12T10:23:26;11.80;99.90
24614;DHT22;12760;46.296;25.290;2023-04-12T10:25:52;11.80;99.90
24614;DHT22;12760;46.296;25.290;2023-04-12T10:28:21;11.80;99.90
24614;DHT22;12760;46.296;25.290;2023-04-12T10:30:47;11.80;99.90
24614;DHT22;12760;46.296;25.290;2023-04-12T10:33:28;11.80;99.90
24614;DHT22;12760;46.296;25.290;2023-04-12T10:36:00;11.90;99.90
24614;DHT22;12760;46.296;25.290;2023-04-12T10:38:28;11.90;99.90
24614;DHT22;12760;46.296;25.290;2023-04-12T10:41:17;11.90;99.90
24614;DHT22;12760;46.296;25.290;2023-04-12T10:43:47;11.90;99.90
24614;DHT22;12760;46.296;25.290;2023-04-12T10:49:13;11.80;99.90
24614;DHT22;12760;46.296;25.290;2023-04-12T10:56:54;11.60;99.90
24614;DHT22;12760;46.296;25.290;2023-04-12T10:59:21;11.60;99.90
24614;DHT22;12760;46.296;25.290;2023-04-12T11:04:31;11.50;99.90
24614;DHT22;12760;46.296;25.290;2023-04-12T11:07:15;11.50;99.90
24614;DHT22;12760;46.296;25.290;2023-04-12T11:09:44;11.60;99.90
24614;DHT22;12760;46.296;25.290;2023-04-12T11:12:14;11.50;99.90
24614;DHT22;12760;46.296;25.290;2023-04-12T11:14:50;11.60;99.90
24614;DHT22;12760;46.296;25.290;2023-04-12T11:19:53;11.70;99.90
24614;DHT22;12760;46.296;25.290;2023-04-12T11:22:21;11.60;99.90
24614;DHT22;12760;46.296;25.290;2023-04-12T11:24:52;11.60;99.90
24614;DHT22;12760;46.296;25.290;2023-04-12T11:27:20;11.60;99.90
24614;DHT22;12760;46.296;25.290;2023-04-12T11:29:51;11.60;99.90
24614;DHT22;12760;46.296;25.290;2023-04-12T11:32:17;11.60;99.90
24614;DHT22;12760;46.296;25.290;2023-04-12T11:34:44;11.60;99.90
24614;DHT22;12760;46.296;25.290;2023-04-12T11:37:11;11.60;99.90
24614;DHT22;12760;46.296;25.290;2023-04-12T11:39:39;11.70;99.90
24614;DHT22;12760;46.296;25.290;2023-04-12T11:42:06;11.70;99.90
24614;DHT22;12760;46.296;25.290;2023-04-12T11:44:39;11.80;99.90
24614;DHT22;12760;46.296;25.290;2023-04-12T11:47:09;11.90;99.90
24614;DHT22;12760;46.296;25.290;2023-04-12T11:49:45;11.90;99.90
24614;DHT22;12760;46.296;25.290;2023-04-12T11:52:11;12.00;99.90
24614;DHT22;12760;46.296;25.290;2023-04-12T11:54:41;11.90;99.90
24614;DHT22;12760;46.296;25.290;2023-04-12T11:57:10;12.00;99.90
24614;DHT22;12760;46.296;25.290;2023-04-12T11:59:36;11.90;99.90
24614;DHT22;12760;46.296;25.290;2023-04-12T12:02:02;11.90;99.90
24614;DHT22;12760;46.296;25.290;2023-04-12T12:04:29;11.90;99.90
24614;DHT22;12760;46.296;25.290;2023-04-12T12:06:56;12.00;99.90
24614;DHT22;12760;46.296;25.290;2023-04-12T12:09:24;12.00;99.90
24614;DHT22;12760;46.296;25.290;2023-04-12T12:11:50;12.10;99.90
24614;DHT22;12760;46.296;25.290;2023-04-12T12:14:20;12.10;99.90
24614;DHT22;12760;46.296;25.290;2023-04-12T12:19:30;12.10;99.90
24614;DHT22;12760;46.296;25.290;2023-04-12T12:22:18;12.20;99.90
24614;DHT22;12760;46.296;25.290;2023-04-12T12:24:49;12.20;99.90
24614;DHT22;12760;46.296;25.290;2023-04-12T12:27:22;12.10;99.90
24614;DHT22;12760;46.296;25.290;2023-04-12T12:29:50;12.10;99.90
24614;DHT22;12760;46.296;25.290;2023-04-12T12:32:16;12.10;99.90
24614;DHT22;12760;46.296;25.290;2023-04-12T12:34:55;12.10;99.90
24614;DHT22;12760;46.296;25.290;2023-04-12T12:37:25;12.10;99.90
24614;DHT22;12760;46.296;25.290;2023-04-12T12:42:33;12.30;99.90
24614;DHT22;12760;46.296;25.290;2023-04-12T12:44:59;12.40;99.90
24614;DHT22;12760;46.296;25.290;2023-04-12T12:47:24;12.50;99.90
24614;DHT22;12760;46.296;25.290;2023-04-12T12:49:50;12.50;99.90
24614;DHT22;12760;46.296;25.290;2023-04-12T12:52:16;12.50;99.90
24614;DHT22;12760;46.296;25.290;2023-04-12T12:54:42;12.60;99.90
24614;DHT22;12760;46.296;25.290;2023-04-12T12:57:07;12.80;99.90
24614;DHT22;12760;46.296;25.290;2023-04-12T12:59:33;12.90;99.90
24614;DHT22;12760;46.296;25.290;2023-04-12T13:01:59;12.90;99.90
24614;DHT22;12760;46.296;25.290;2023-04-12T13:04:25;13.00;99.90
24614;DHT22;12760;46.296;25.290;2023-04-12T13:06:51;13.10;99.90
24614;DHT22;12760;46.296;25.290;2023-04-12T13:09:16;13.00;99.90
24614;DHT22;12760;46.296;25.290;2023-04-12T13:11:42;13.10;99.90
24614;DHT22;12760;46.296;25.290;2023-04-12T13:14:08;13.10;99.90
24614;DHT22;12760;46.296;25.290;2023-04-12T13:16:34;13.20;99.90
24614;DHT22;12760;46.296;25.290;2023-04-12T13:19:00;13.30;99.90
24614;DHT22;12760;46.296;25.290;2023-04-12T13:21:26;13.30;99.90
24614;DHT22;12760;46.296;25.290;2023-04-12T13:23:52;13.20;99.90
24614;DHT22;12760;46.296;25.290;2023-04-12T13:26:17;13.20;99.90
24614;DHT22;12760;46.296;25.290;2023-04-12T13:28:43;13.30;99.90
24614;DHT22;12760;46.296;25.290;2023-04-12T13:31:09;13.30;99.90
24614;DHT22;12760;46.296;25.290;2023-04-12T13:33:34;13.20;99.90
24614;DHT22;12760;46.296;25.290;2023-04-12T13:36:00;13.10;99.90
24614;DHT22;12760;46.296;25.290;2023-04-12T13:38:26;13.10;99.90
24614;DHT22;12760;46.296;25.290;2023-04-12T13:40:52;13.10;99.90
24614;DHT22;12760;46.296;25.290;2023-04-12T13:43:17;13.10;99.90
24614;DHT22;12760;46.296;25.290;2023-04-12T13:45:43;13.10;99.90
24614;DHT22;12760;46.296;25.290;2023-04-12T13:48:09;13.10;99.90
24614;DHT22;12760;46.296;25.290;2023-04-12T13:50:35;13.10;99.90
24614;DHT22;12760;46.296;25.290;2023-04-12T13:53:00;13.10;99.90
24614;DHT22;12760;46.296;25.290;2023-04-12T13:55:26;13.00;99.90
24614;DHT22;12760;46.296;25.290;2023-04-12T13:57:52;13.00;99.90
24614;DHT22;12760;46.296;25.290;2023-04-12T14:00:18;13.10;99.90
24614;DHT22;12760;46.296;25.290;2023-04-12T14:02:44;13.20;99.90
24614;DHT22;12760;46.296;25.290;2023-04-12T14:05:10;13.30;99.90
24614;DHT22;12760;46.296;25.290;2023-04-12T14:07:36;13.30;99.90
24614;DHT22;12760;46.296;25.290;2023-04-12T14:10:02;13.20;99.90
24614;DHT22;12760;46.296;25.290;2023-04-12T14:12:27;12.90;99.90
24614;DHT22;12760;46.296;25.290;2023-04-12T14:14:53;12.90;99.90
24614;DHT22;12760;46.296;25.290;2023-04-12T14:17:19;12.90;99.90
24614;DHT22;12760;46.296;25.290;2023-04-12T14:19:44;13.00;99.90
24614;DHT22;12760;46.296;25.290;2023-04-12T14:22:10;13.10;99.90
24614;DHT22;12760;46.296;25.290;2023-04-12T14:24:36;13.30;99.90
24614;DHT22;12760;46.296;25.290;2023-04-12T14:27:02;13.30;99.90
24614;DHT22;12760;46.296;25.290;2023-04-12T14:29:29;13.40;99.90
24614;DHT22;12760;46.296;25.290;2023-04-12T14:31:55;13.30;99.90
24614;DHT22;12760;46.296;25.290;2023-04-12T14:34:20;13.20;99.90
24614;DHT22;12760;46.296;25.290;2023-04-12T14:36:46;13.20;99.90
24614;DHT22;12760;46.296;25.290;2023-04-12T14:39:11;13.20;99.90
24614;DHT22;12760;46.296;25.290;2023-04-12T14:41:38;13.20;99.90
24614;DHT22;12760;46.296;25.290;2023-04-12T14:44:04;13.10;99.90
24614;DHT22;12760;46.296;25.290;2023-04-12T14:46:30;13.00;99.90
24614;DHT22;12760;46.296;25.290;2023-04-12T14:48:56;12.90;99.90
24614;DHT22;12760;46.296;25.290;2023-04-12T14:51:25;12.80;99.90
24614;DHT22;12760;46.296;25.290;2023-04-12T14:53:52;12.80;99.90
24614;DHT22;12760;46.296;25.290;2023-04-12T14:56:22;12.80;99.90
24614;DHT22;12760;46.296;25.290;2023-04-12T14:58:53;12.80;99.90
24614;DHT22;12760;46.296;25.290;2023-04-12T15:01:23;12.80;99.90
24614;DHT22;12760;46.296;25.290;2023-04-12T15:03:52;12.80;99.90
24614;DHT22;12760;46.296;25.290;2023-04-12T15:06:18;12.80;99.90
24614;DHT22;12760;46.296;25.290;2023-04-12T15:08:44;12.70;99.90
24614;DHT22;12760;46.296;25.290;2023-04-12T15:11:11;12.60;99.90
24614;DHT22;12760;46.296;25.290;2023-04-12T15:13:38;12.50;99.90
24614;DHT22;12760;46.296;25.290;2023-04-12T15:16:06;12.50;99.90
24614;DHT22;12760;46.296;25.290;2023-04-12T15:18:36;12.50;99.90
24614;DHT22;12760;46.296;25.290;2023-04-12T15:21:07;12.40;99.90
24614;DHT22;12760;46.296;25.290;2023-04-12T15:23:34;12.40;99.90
24614;DHT22;12760;46.296;25.290;2023-04-12T15:26:00;12.30;99.90
24614;DHT22;12760;46.296;25.290;2023-04-12T15:28:26;12.20;99.90
24614;DHT22;12760;46.296;25.290;2023-04-12T15:30:53;12.20;99.90
24614;DHT22;12760;46.296;25.290;2023-04-12T15:33:22;12.10;99.90
24614;DHT22;12760;46.296;25.290;2023-04-12T15:35:48;12.10;99.90
24614;DHT22;12760;46.296;25.290;2023-04-12T15:38:14;12.00;99.90
24614;DHT22;12760;46.296;25.290;2023-04-12T15:40:41;11.90;99.90
24614;DHT22;12760;46.296;25.290;2023-04-12T15:43:07;12.00;99.90
24614;DHT22;12760;46.296;25.290;2023-04-12T15:45:33;12.00;99.90